Terminal Aerodrome Forecast
Issued by NWS Quad Cities IA IL

Home | Current Version | Previous Version | Text Only | Print | Product List | Glossary On
Versions: 1 2 3 4 5 6 7 8 9 10 11 12 13 14 15 16 17 18 19 20 21 22 23 24 25 26 27 28 29 30 31 32
000
FTUS43 KDVN 292034 AAC
TAFMLI
TAF AMD
KMLI 292034Z 2921/3018 14004KT P6SM VCTS SCT025CB BKN200
      TEMPO 2921/2923 VRB12G20KT 3SM TSRA BR BKN025CB
     FM300200 VRB03KT P6SM SCT025 BKN200
     FM300700 VRB03KT 4SM BR VCSH SCT030 BKN150
     FM301000 VRB03KT 2SM BR VCSH SCT007 BKN150
     FM301400 VRB03KT 4SM BR FEW007 BKN150=

USA.gov is the U.S. government's official web portal to all federal, state and local government web resources and services.